createdAt,value
2018-01-07T00:00:55.129Z,2.50
2018-01-07T00:03:24.196Z,2.50
2018-01-07T00:05:52.298Z,2.50
2018-01-07T00:08:20.471Z,2.50
2018-01-07T00:10:48.706Z,2.50
2018-01-07T00:13:16.876Z,2.60
2018-01-07T00:15:44.957Z,2.60
2018-01-07T00:18:13.062Z,2.60
2018-01-07T00:20:41.155Z,2.60
2018-01-07T00:23:09.247Z,2.60
2018-01-07T00:25:37.460Z,2.60
2018-01-07T00:28:05.574Z,2.60
2018-01-07T00:30:33.727Z,2.60
2018-01-07T00:33:01.853Z,2.60
2018-01-07T00:35:29.947Z,2.60
2018-01-07T00:37:58.069Z,2.60
2018-01-07T00:40:26.155Z,2.60
2018-01-07T00:42:54.263Z,2.60
2018-01-07T00:45:22.355Z,2.60
2018-01-07T00:47:50.455Z,2.70
2018-01-07T00:50:18.651Z,2.70
2018-01-07T00:52:46.739Z,2.70
2018-01-07T00:55:16.547Z,2.70
2018-01-07T00:57:44.983Z,2.70
2018-01-07T01:00:13.089Z,2.70
2018-01-07T01:02:41.170Z,2.70
2018-01-07T01:05:09.271Z,2.70
2018-01-07T01:07:37.382Z,2.70
2018-01-07T01:10:06.016Z,2.70
2018-01-07T01:12:34.100Z,2.60
2018-01-07T01:15:02.202Z,2.60
2018-01-07T01:17:31.053Z,2.60
2018-01-07T01:19:59.233Z,2.60
2018-01-07T01:22:27.345Z,2.50
2018-01-07T01:24:55.445Z,2.50
2018-01-07T01:27:23.532Z,2.50
2018-01-07T01:29:51.657Z,2.50
2018-01-07T01:32:20.504Z,2.40
2018-01-07T01:34:49.234Z,2.40
2018-01-07T01:37:17.453Z,2.40
2018-01-07T01:39:45.619Z,2.40
2018-01-07T01:42:13.770Z,2.40
2018-01-07T01:44:41.863Z,2.40
2018-01-07T01:47:09.971Z,2.40
2018-01-07T01:49:38.061Z,2.40
2018-01-07T01:52:06.984Z,2.40
2018-01-07T01:54:35.541Z,2.40
2018-01-07T01:57:03.647Z,2.40
2018-01-07T01:59:31.733Z,2.40
2018-01-07T02:01:59.831Z,2.40
2018-01-07T02:04:28.025Z,2.40
2018-01-07T02:06:56.105Z,2.40
2018-01-07T02:09:24.207Z,2.40
2018-01-07T02:11:52.279Z,2.40
2018-01-07T02:14:20.379Z,2.40
2018-01-07T02:16:48.464Z,2.40
2018-01-07T02:19:16.567Z,2.40
2018-01-07T02:21:44.696Z,2.40
2018-01-07T02:24:12.798Z,2.30
2018-01-07T02:26:40.881Z,2.30
2018-01-07T02:29:09.626Z,2.30
2018-01-07T02:31:37.845Z,2.30
2018-01-07T02:34:05.976Z,2.20
2018-01-07T02:36:34.100Z,2.20
2018-01-07T02:39:02.194Z,2.20
2018-01-07T02:41:31.018Z,2.20
2018-01-07T02:43:59.165Z,2.10
2018-01-07T02:46:27.451Z,2.10
2018-01-07T02:48:55.598Z,2.10
2018-01-07T02:51:23.776Z,2.10
2018-01-07T02:53:52.029Z,2.10
2018-01-07T02:56:20.167Z,2.10
2018-01-07T02:58:48.316Z,2.10
2018-01-07T03:01:16.394Z,2.00
2018-01-07T03:03:44.497Z,2.00
2018-01-07T03:06:12.577Z,2.00
2018-01-07T03:08:41.431Z,2.00
2018-01-07T03:11:09.569Z,1.90
2018-01-07T03:13:37.703Z,1.90
2018-01-07T03:16:05.833Z,1.90
2018-01-07T03:18:33.935Z,1.90
2018-01-07T03:21:02.031Z,1.90
2018-01-07T03:23:30.115Z,1.90
2018-01-07T03:25:58.255Z,1.80
2018-01-07T03:28:26.388Z,1.90
2018-01-07T03:30:54.492Z,1.90
2018-01-07T03:33:22.673Z,1.80
2018-01-07T03:35:50.838Z,1.90
2018-01-07T03:38:18.926Z,1.90
2018-01-07T03:40:47.991Z,1.90
2018-01-07T03:43:16.075Z,1.90
2018-01-07T03:45:44.186Z,1.90
2018-01-07T03:48:12.283Z,1.90
2018-01-07T03:50:40.364Z,1.90
2018-01-07T03:53:08.460Z,1.90
2018-01-07T03:55:36.544Z,1.90
2018-01-07T03:58:04.670Z,1.90
2018-01-07T04:00:32.752Z,1.90
2018-01-07T04:03:00.933Z,1.90
2018-01-07T04:05:29.042Z,1.90
2018-01-07T04:07:57.162Z,1.90
2018-01-07T04:10:25.306Z,1.90
2018-01-07T04:12:53.446Z,1.90
2018-01-07T04:15:21.551Z,1.90
2018-01-07T04:17:49.680Z,1.90
2018-01-07T04:20:17.968Z,1.80
2018-01-07T04:22:46.169Z,1.90
2018-01-07T04:25:14.321Z,1.80
2018-01-07T04:27:42.398Z,1.80
2018-01-07T04:30:11.262Z,1.80
2018-01-07T04:32:39.356Z,1.80
2018-01-07T04:35:07.482Z,1.80
2018-01-07T04:37:35.633Z,1.80
2018-01-07T04:40:03.743Z,1.70
2018-01-07T04:42:31.867Z,1.70
2018-01-07T04:45:00.719Z,1.70
2018-01-07T04:47:28.837Z,1.70
2018-01-07T04:49:56.969Z,1.70
2018-01-07T04:52:25.115Z,1.70
2018-01-07T04:54:53.228Z,1.60
2018-01-07T04:57:21.459Z,1.70
2018-01-07T04:59:49.697Z,1.60
2018-01-07T05:02:17.963Z,1.60
2018-01-07T05:04:46.189Z,1.60
2018-01-07T05:07:14.801Z,1.60
2018-01-07T05:09:42.906Z,1.60
2018-01-07T05:12:10.994Z,1.60
2018-01-07T05:14:39.213Z,1.60
2018-01-07T05:17:07.410Z,1.60
2018-01-07T05:19:35.644Z,1.60
2018-01-07T05:22:03.838Z,1.60
2018-01-07T05:24:31.942Z,1.60
2018-01-07T05:27:00.839Z,1.60
2018-01-07T05:29:28.950Z,1.60
2018-01-07T05:31:57.060Z,1.60
2018-01-07T05:34:25.152Z,1.60
2018-01-07T05:36:53.256Z,1.60
2018-01-07T05:39:21.357Z,1.60
2018-01-07T05:41:49.478Z,1.60
2018-01-07T05:44:17.629Z,1.50
2018-01-07T05:46:46.334Z,1.50
2018-01-07T05:49:14.403Z,1.50
2018-01-07T05:51:42.532Z,1.50
2018-01-07T05:54:10.624Z,1.50
2018-01-07T05:56:38.717Z,1.50
2018-01-07T05:59:08.291Z,1.50
2018-01-07T06:01:36.396Z,1.50
2018-01-07T06:04:05.253Z,1.50
2018-01-07T06:06:33.355Z,1.50
2018-01-07T06:09:01.481Z,1.50
2018-01-07T06:11:30.563Z,1.50
2018-01-07T06:13:58.821Z,1.50
2018-01-07T06:16:26.937Z,1.60
2018-01-07T06:18:55.044Z,1.60
2018-01-07T06:21:23.135Z,1.70
2018-01-07T06:23:51.272Z,1.70
2018-01-07T06:26:19.905Z,1.80
2018-01-07T06:28:48.920Z,1.80
2018-01-07T06:31:17.076Z,1.90
2018-01-07T06:33:45.228Z,2.00
2018-01-07T06:36:13.343Z,2.00
2018-01-07T06:38:41.539Z,2.10
2018-01-07T06:41:09.793Z,2.20
2018-01-07T06:43:37.912Z,2.20
2018-01-07T06:46:06.021Z,2.30
2018-01-07T06:48:34.132Z,2.30
2018-01-07T06:51:02.308Z,2.40
2018-01-07T06:53:30.418Z,2.40
2018-01-07T06:55:58.507Z,2.50
2018-01-07T06:58:26.625Z,2.50
2018-01-07T07:00:54.717Z,2.60
2018-01-07T07:03:22.822Z,2.60
2018-01-07T07:05:50.929Z,2.70
2018-01-07T07:08:19.108Z,2.70
2018-01-07T07:10:47.206Z,2.70
2018-01-07T07:13:15.340Z,2.80
2018-01-07T07:15:43.429Z,2.80
2018-01-07T07:18:11.544Z,2.80
2018-01-07T07:20:39.647Z,2.80
2018-01-07T07:23:07.811Z,2.80
2018-01-07T07:25:35.934Z,2.90
2018-01-07T07:28:04.035Z,2.90
2018-01-07T07:30:32.151Z,2.90
2018-01-07T07:33:00.247Z,2.90
2018-01-07T07:35:29.179Z,2.90
2018-01-07T07:37:57.294Z,2.90
2018-01-07T07:40:25.416Z,2.90
2018-01-07T07:42:53.509Z,2.90
2018-01-07T07:45:22.045Z,3.00
2018-01-07T07:47:50.896Z,3.00
2018-01-07T07:50:19.029Z,3.10
2018-01-07T07:52:47.129Z,3.10
2018-01-07T07:55:15.218Z,3.20
2018-01-07T07:57:43.323Z,3.20
2018-01-07T08:00:11.476Z,3.20
2018-01-07T08:02:39.572Z,3.30
2018-01-07T08:05:07.688Z,3.30
2018-01-07T08:07:35.793Z,3.40
2018-01-07T08:10:03.884Z,3.40
2018-01-07T08:12:31.988Z,3.40
2018-01-07T08:15:00.075Z,3.50
2018-01-07T08:17:28.248Z,3.50
2018-01-07T08:19:56.330Z,3.50
2018-01-07T08:22:24.456Z,3.60
2018-01-07T08:24:52.538Z,3.60
2018-01-07T08:27:20.673Z,3.60
2018-01-07T08:29:48.749Z,3.60
2018-01-07T08:32:16.915Z,3.70
2018-01-07T08:34:45.079Z,3.70
2018-01-07T08:37:13.128Z,3.70
2018-01-07T08:39:41.385Z,3.80
2018-01-07T08:42:09.545Z,3.80
2018-01-07T08:44:37.708Z,3.90
2018-01-07T08:47:05.795Z,3.90
2018-01-07T08:49:33.899Z,3.90
2018-01-07T08:52:02.017Z,3.90
2018-01-07T08:54:30.904Z,3.90
2018-01-07T08:56:59.773Z,3.90
2018-01-07T08:59:27.858Z,4.00
2018-01-07T09:01:56.743Z,4.00
2018-01-07T09:04:24.850Z,4.10
2018-01-07T09:06:52.950Z,4.10
2018-01-07T09:09:21.051Z,4.10
2018-01-07T09:12:11.789Z,4.20
2018-01-07T09:14:40.666Z,4.20
2018-01-07T09:17:08.834Z,4.20
2018-01-07T09:19:36.954Z,4.30
2018-01-07T09:22:05.058Z,4.30
2018-01-07T09:24:33.206Z,4.40
2018-01-07T09:27:01.310Z,4.40
2018-01-07T09:29:29.427Z,4.40
2018-01-07T09:31:57.582Z,4.50
2018-01-07T09:34:26.472Z,4.50
2018-01-07T09:36:54.552Z,4.60
2018-01-07T09:39:22.667Z,4.60
2018-01-07T09:41:50.752Z,4.70
2018-01-07T09:44:18.848Z,4.70
2018-01-07T09:46:46.927Z,4.70
2018-01-07T09:49:15.049Z,4.80
2018-01-07T09:51:43.136Z,4.80
2018-01-07T09:54:11.288Z,4.80
2018-01-07T09:56:39.371Z,4.80
2018-01-07T09:59:07.502Z,4.90
2018-01-07T10:01:35.609Z,4.90
2018-01-07T10:04:03.695Z,4.90
2018-01-07T10:06:31.810Z,4.90
2018-01-07T10:09:00.708Z,4.90
2018-01-07T10:11:28.893Z,5.00
2018-01-07T10:13:57.025Z,5.00
2018-01-07T10:16:25.149Z,5.10
2018-01-07T10:18:53.242Z,5.10
2018-01-07T10:21:21.336Z,5.10
2018-01-07T10:23:49.463Z,5.10
2018-01-07T10:26:17.682Z,5.10
2018-01-07T10:28:45.806Z,5.20
2018-01-07T10:31:13.936Z,5.20
2018-01-07T10:33:42.030Z,5.20
2018-01-07T10:36:10.911Z,5.20
2018-01-07T10:38:39.013Z,5.20
2018-01-07T10:41:07.112Z,5.20
2018-01-07T10:43:35.217Z,5.30
2018-01-07T10:46:03.314Z,5.30
2018-01-07T10:48:31.404Z,5.30
2018-01-07T10:50:59.548Z,5.40
2018-01-07T10:53:28.556Z,5.40
2018-01-07T10:55:56.696Z,5.40
2018-01-07T10:58:24.857Z,5.50
2018-01-07T11:00:58.633Z,5.50
2018-01-07T11:03:26.737Z,5.50
2018-01-07T11:05:54.836Z,5.60
2018-01-07T11:08:23.800Z,5.60
2018-01-07T11:10:51.918Z,5.70
2018-01-07T11:13:20.292Z,5.70
2018-01-07T11:15:48.481Z,5.70
2018-01-07T11:18:16.583Z,5.80
2018-01-07T11:20:45.294Z,5.80
2018-01-07T11:23:13.397Z,5.90
2018-01-07T11:25:41.517Z,5.90
2018-01-07T11:28:09.804Z,6.00
2018-01-07T11:30:37.976Z,6.00
2018-01-07T11:33:06.074Z,6.00
2018-01-07T11:35:34.240Z,6.10
2018-01-07T11:38:03.135Z,6.10
2018-01-07T11:40:31.228Z,6.20
2018-01-07T11:42:59.416Z,6.20
2018-01-07T11:45:27.499Z,6.20
2018-01-07T11:47:55.624Z,6.30
2018-01-07T11:50:24.492Z,6.30
2018-01-07T11:52:52.585Z,6.20
2018-01-07T11:55:21.464Z,6.30
2018-01-07T11:57:49.588Z,6.30
2018-01-07T12:00:17.698Z,6.30
2018-01-07T12:02:45.845Z,6.30
2018-01-07T12:05:13.941Z,6.30
2018-01-07T12:07:42.039Z,6.30
2018-01-07T12:10:10.142Z,6.40
2018-01-07T12:12:38.299Z,6.40
2018-01-07T12:15:06.399Z,6.40
2018-01-07T12:17:35.476Z,6.40
2018-01-07T12:20:04.178Z,6.40
2018-01-07T12:22:32.307Z,6.40
2018-01-07T12:25:00.485Z,6.40
2018-01-07T12:27:28.742Z,6.40
2018-01-07T12:29:56.861Z,6.40
2018-01-07T12:32:24.961Z,6.30
2018-01-07T12:34:53.066Z,6.40
2018-01-07T12:37:21.179Z,6.30
2018-01-07T12:39:49.286Z,6.30
2018-01-07T12:42:17.384Z,6.40
2018-01-07T12:44:45.993Z,6.40
2018-01-07T12:47:14.853Z,6.40
2018-01-07T12:49:42.944Z,6.40
2018-01-07T12:52:11.802Z,6.40
2018-01-07T12:54:39.949Z,6.40
2018-01-07T12:57:08.080Z,6.40
2018-01-07T12:59:36.169Z,6.40
2018-01-07T13:02:04.272Z,6.50
2018-01-07T13:04:32.372Z,6.50
2018-01-07T13:07:00.480Z,6.50
2018-01-07T13:09:28.584Z,6.50
2018-01-07T13:11:56.695Z,6.50
2018-01-07T13:14:24.792Z,6.50
2018-01-07T13:16:52.903Z,6.50
2018-01-07T13:19:21.033Z,6.60
2018-01-07T13:21:49.923Z,6.60
2018-01-07T13:24:18.110Z,6.60
2018-01-07T13:26:46.225Z,6.60
2018-01-07T13:29:14.321Z,6.60
2018-01-07T13:31:42.849Z,6.70
2018-01-07T13:34:10.980Z,6.70
2018-01-07T13:36:39.066Z,6.70
2018-01-07T13:39:07.207Z,6.70
2018-01-07T13:41:35.296Z,6.70
2018-01-07T13:44:03.412Z,6.70
2018-01-07T13:46:31.521Z,6.70
2018-01-07T13:48:59.665Z,6.70
2018-01-07T13:51:27.843Z,6.70
2018-01-07T13:53:56.035Z,6.70
2018-01-07T13:56:24.147Z,6.70
2018-01-07T13:58:52.293Z,6.70
2018-01-07T14:01:20.412Z,6.70
2018-01-07T14:03:48.628Z,6.70
2018-01-07T14:06:16.734Z,6.70
2018-01-07T14:08:44.826Z,6.70
2018-01-07T14:11:13.038Z,6.70
2018-01-07T14:13:41.134Z,6.70
2018-01-07T14:16:09.301Z,6.70
2018-01-07T14:18:37.427Z,6.70
2018-01-07T14:21:05.559Z,6.70
2018-01-07T14:23:33.636Z,6.60
2018-01-07T14:26:01.740Z,6.60
2018-01-07T14:28:29.950Z,6.60
2018-01-07T14:30:58.129Z,6.60
2018-01-07T14:33:26.238Z,6.60
2018-01-07T14:35:54.373Z,6.60
2018-01-07T14:38:23.089Z,6.60
2018-01-07T14:40:51.999Z,6.60
2018-01-07T14:43:20.147Z,6.60
2018-01-07T14:45:48.255Z,6.50
2018-01-07T14:48:16.379Z,6.50
2018-01-07T14:50:44.479Z,6.50
2018-01-07T14:53:12.608Z,6.40
2018-01-07T14:55:40.703Z,6.40
2018-01-07T14:58:09.039Z,6.40
2018-01-07T15:00:37.366Z,6.30
2018-01-07T15:03:06.173Z,6.30
2018-01-07T15:05:35.047Z,6.30
2018-01-07T15:08:03.163Z,6.30
2018-01-07T15:10:31.307Z,6.20
2018-01-07T15:12:59.433Z,6.20
2018-01-07T15:15:27.592Z,6.20
2018-01-07T15:17:55.749Z,6.30
2018-01-07T15:20:24.021Z,6.30
2018-01-07T15:22:52.209Z,6.30
2018-01-07T15:25:20.421Z,6.20
2018-01-07T15:27:48.745Z,6.20
2018-01-07T15:30:16.903Z,6.30
2018-01-07T15:32:45.037Z,6.30
2018-01-07T15:35:13.189Z,6.20
2018-01-07T15:37:41.357Z,6.20
2018-01-07T15:40:09.853Z,6.20
2018-01-07T15:42:38.032Z,6.20
2018-01-07T15:45:06.195Z,6.20
2018-01-07T15:47:34.321Z,6.20
2018-01-07T15:50:03.253Z,6.20
2018-01-07T15:52:31.419Z,6.20
2018-01-07T15:54:59.551Z,6.20
2018-01-07T15:57:28.521Z,6.10
2018-01-07T15:59:56.719Z,6.20
2018-01-07T16:02:24.869Z,6.20
2018-01-07T16:04:53.021Z,6.20
2018-01-07T16:07:21.150Z,6.20
2018-01-07T16:09:49.733Z,6.20
2018-01-07T16:12:19.067Z,6.20
2018-01-07T16:14:47.239Z,6.20
2018-01-07T16:17:15.427Z,6.20
2018-01-07T16:19:43.606Z,6.20
2018-01-07T16:22:11.744Z,6.20
2018-01-07T16:24:39.977Z,6.30
2018-01-07T16:27:08.199Z,6.30
2018-01-07T16:29:36.384Z,6.30
2018-01-07T16:32:04.519Z,6.30
2018-01-07T16:34:33.469Z,6.30
2018-01-07T16:37:01.625Z,6.40
2018-01-07T16:39:29.972Z,6.40
2018-01-07T16:41:58.277Z,6.40
2018-01-07T16:44:27.373Z,6.40
2018-01-07T16:46:55.617Z,6.40
2018-01-07T16:49:23.750Z,6.40
2018-01-07T16:51:51.992Z,6.50
2018-01-07T16:54:20.210Z,6.50
2018-01-07T16:56:48.471Z,6.50
2018-01-07T16:59:16.605Z,6.60
2018-01-07T17:01:44.753Z,6.60
2018-01-07T17:04:12.931Z,6.60
2018-01-07T17:06:42.284Z,6.60
2018-01-07T17:09:10.441Z,6.70
2018-01-07T17:11:39.378Z,6.70
2018-01-07T17:14:07.548Z,6.70
2018-01-07T17:16:35.670Z,6.80
2018-01-07T17:19:03.858Z,6.80
2018-01-07T17:21:32.094Z,6.80
2018-01-07T17:24:00.978Z,6.80
2018-01-07T17:26:30.111Z,6.80
2018-01-07T17:28:58.244Z,6.90
2018-01-07T17:31:26.373Z,6.90
2018-01-07T17:33:54.542Z,6.90
2018-01-07T17:36:22.672Z,6.90
2018-01-07T17:38:50.863Z,7.00
2018-01-07T17:41:19.054Z,7.00
2018-01-07T17:43:47.257Z,7.00
2018-01-07T17:46:15.475Z,7.00
2018-01-07T17:48:43.626Z,7.00
2018-01-07T17:51:11.732Z,7.10
2018-01-07T17:53:39.921Z,7.10
2018-01-07T17:56:08.061Z,7.10
2018-01-07T17:58:36.275Z,7.10
2018-01-07T18:01:05.322Z,7.10
2018-01-07T18:03:34.275Z,7.20
2018-01-07T18:06:02.504Z,7.20
2018-01-07T18:08:35.233Z,7.20
2018-01-07T18:11:03.423Z,7.20
2018-01-07T18:13:31.646Z,7.20
2018-01-07T18:15:59.861Z,7.30
2018-01-07T18:18:28.058Z,7.30
2018-01-07T18:20:56.312Z,7.30
2018-01-07T18:23:24.513Z,7.30
2018-01-07T18:25:52.748Z,7.40
2018-01-07T18:28:20.981Z,7.30
2018-01-07T18:30:50.111Z,7.30
2018-01-07T18:33:18.324Z,7.40
2018-01-07T18:35:46.670Z,7.40
2018-01-07T18:38:14.864Z,7.40
2018-01-07T18:40:43.050Z,7.40
2018-01-07T18:43:11.305Z,7.40
2018-01-07T18:45:40.688Z,7.40
2018-01-07T18:48:08.957Z,7.40
2018-01-07T18:50:37.124Z,7.40
2018-01-07T18:53:05.359Z,7.50
2018-01-07T18:55:34.380Z,7.50
2018-01-07T18:58:02.599Z,7.50
2018-01-07T19:00:30.839Z,7.50
2018-01-07T19:02:59.151Z,7.50
2018-01-07T19:05:27.373Z,7.50
2018-01-07T19:07:56.465Z,7.50
2018-01-07T19:10:24.698Z,7.50
2018-01-07T19:12:52.936Z,7.50
2018-01-07T19:15:21.926Z,7.50
2018-01-07T19:17:50.457Z,7.50
2018-01-07T19:20:18.780Z,7.50
2018-01-07T19:22:46.976Z,7.50
2018-01-07T19:25:15.242Z,7.50
2018-01-07T19:27:43.514Z,7.60
2018-01-07T19:30:12.719Z,7.60
2018-01-07T19:32:41.774Z,7.60
2018-01-07T19:35:11.019Z,7.60
2018-01-07T19:37:40.328Z,7.60
2018-01-07T19:40:08.735Z,7.60
2018-01-07T19:42:38.446Z,7.60
2018-01-07T19:45:06.792Z,7.60
2018-01-07T19:47:36.029Z,7.60
2018-01-07T19:50:04.904Z,7.60
2018-01-07T19:52:33.216Z,7.70
2018-01-07T19:55:01.500Z,7.70
2018-01-07T19:57:29.784Z,7.70
2018-01-07T19:59:58.964Z,7.70
2018-01-07T20:02:28.081Z,7.70
2018-01-07T20:04:56.356Z,7.70
2018-01-07T20:07:26.149Z,7.70
2018-01-07T20:09:54.453Z,7.70
2018-01-07T20:12:22.802Z,7.70
2018-01-07T20:14:54.626Z,7.70
2018-01-07T20:17:24.154Z,7.70
2018-01-07T20:19:57.013Z,7.80
2018-01-07T20:22:26.469Z,7.80
2018-01-07T20:24:54.792Z,7.80
2018-01-07T20:27:23.198Z,7.80
2018-01-07T20:29:52.341Z,7.80
2018-01-07T20:32:20.674Z,7.80
2018-01-07T20:34:50.714Z,7.70
2018-01-07T20:37:19.044Z,7.70
2018-01-07T20:39:51.271Z,7.70
2018-01-07T20:42:20.950Z,7.70
2018-01-07T20:44:49.984Z,7.70
2018-01-07T20:47:18.268Z,7.70
2018-01-07T20:49:47.418Z,7.70
2018-01-07T20:52:16.444Z,7.80
2018-01-07T21:07:41.464Z,7.30
2018-01-07T21:10:09.804Z,7.20
2018-01-07T21:12:38.190Z,7.20
2018-01-07T21:15:06.451Z,7.30
2018-01-07T21:17:34.778Z,7.40
2018-01-07T21:20:02.988Z,7.40
2018-01-07T21:22:31.349Z,7.50
2018-01-07T21:24:59.760Z,7.50
2018-01-07T21:27:28.977Z,7.60
2018-01-07T21:29:57.194Z,7.60
2018-01-07T21:32:25.459Z,7.60
2018-01-07T21:34:53.714Z,7.60
2018-01-07T21:37:21.982Z,7.60
2018-01-07T21:39:50.208Z,7.60
2018-01-07T21:42:18.570Z,7.70
2018-01-07T21:44:46.849Z,7.70
2018-01-07T21:47:15.094Z,7.70
2018-01-07T21:49:43.321Z,7.70
2018-01-07T21:52:12.303Z,7.70
2018-01-07T21:54:41.383Z,7.60
2018-01-07T21:57:09.739Z,7.60
2018-01-07T22:02:45.539Z,7.60
2018-01-07T22:05:15.696Z,7.60
2018-01-07T22:07:43.976Z,7.60
2018-01-07T22:10:12.566Z,7.50
2018-01-07T22:12:40.742Z,7.50
2018-01-07T22:15:08.928Z,7.50
2018-01-07T22:17:37.125Z,7.50
2018-01-07T22:20:06.147Z,7.50
2018-01-07T22:22:34.308Z,7.50
2018-01-07T22:25:03.208Z,7.50
2018-01-07T22:27:31.350Z,7.50
2018-01-07T22:29:59.565Z,7.50
2018-01-07T22:32:27.798Z,7.50
2018-01-07T22:34:56.102Z,7.50
2018-01-07T22:37:24.977Z,7.60
2018-01-07T22:39:53.885Z,7.60
2018-01-07T22:42:22.837Z,7.60
2018-01-07T22:44:51.015Z,7.60
2018-01-07T22:47:24.894Z,7.60
2018-01-07T22:49:53.141Z,7.60
2018-01-07T22:52:21.327Z,7.60
2018-01-07T22:54:49.530Z,7.60
2018-01-07T22:57:17.734Z,7.60
2018-01-07T22:59:45.871Z,7.60
2018-01-07T23:02:14.015Z,7.60
2018-01-07T23:04:42.145Z,7.60
2018-01-07T23:07:10.395Z,7.60
2018-01-07T23:09:38.535Z,7.60
2018-01-07T23:12:06.723Z,7.60
2018-01-07T23:14:34.928Z,7.60
2018-01-07T23:17:03.274Z,7.70
2018-01-07T23:19:31.410Z,7.70
2018-01-07T23:21:59.614Z,7.70
2018-01-07T23:24:27.843Z,7.70
2018-01-07T23:26:56.029Z,7.70
2018-01-07T23:29:24.276Z,7.70
2018-01-07T23:31:52.541Z,7.70
2018-01-07T23:34:20.850Z,7.70
2018-01-07T23:36:49.133Z,7.70
2018-01-07T23:39:17.264Z,7.60
2018-01-07T23:41:45.408Z,7.70
2018-01-07T23:44:14.314Z,7.70
2018-01-07T23:46:42.444Z,7.60
2018-01-07T23:49:10.555Z,7.60
2018-01-07T23:51:39.542Z,7.60
2018-01-07T23:54:07.779Z,7.60
2018-01-07T23:56:35.975Z,7.60
2018-01-07T23:59:04.209Z,7.60
